Randall Island, California
Current Conditions -  °F | °C
As of 4:53 PM on Saturday 25 Oct 2014 (Local Time) from KSAC Reporting Station
Clear Clear  
Wind Chill: 70°   Ceiling: Unl
Heat Index: 70°   Visibility: 10mi
Dew Point: 54°   Wind: 10mph
Humidity: 57%   Direction: 210°SSW
Pressure: 30.04"   Gusts: 18mph
Location:  38.3168°N, 121.532°W
Report Text: KSAC 252353Z AUTO 21009G16KT 10SM CLR 21/12 A3004 RMK AO2 SLP173 T02110122 10228 20172 51003 TSNO
Loading
Personal Weather Stations






























Interactive Weather Map
Tropical Storm Tracking
New forecast layout! Learn more

10-Day Weather Forecast

Advertisements
Track Severe Weather on mobile